Madison, SD

8:26 AM CDT on July 25, 2017 (GMT -0500)
Madison Municipal

Weather History for KMDS - November, 2013

Change the Weather History Date:

Tuesday, November 5, 2013

  Actual Average Record
Temperature  
Mean Temperature 30 °F -  
Max Temperature 33 °F 47 °F 71 °F (2016)
Min Temperature 26 °F 25 °F 23 °F (2010)
Degree Days  
Heating Degree Days 36    
Moisture  
Dew Point 29 °F    
Average Humidity 95    
Maximum Humidity 100    
Minimum Humidity 65    
Precipitation  
Precipitation 7.19 in - - ()
Sea Level Pressure  
Sea Level Pressure 30.13 in    
Wind  
Wind Speed 6 mph (NNE)    
Max Wind Speed 17 mph    
Max Gust Speed 23 mph    
Visibility 6 miles    
Events Snow    
Averages and records for this station are not official NWS values.
T = Trace of Precipitation, MM = Missing Value Source: NWS Daily Summary

Daily Weather History Graph

Daily Weather History Graph

Search for Another Location

Airport or City:

Trip Planner

Search our weather history database for the weather conditions in past years. The results will help you decide how hot, cold, wet, or windy it might be!

Date:

Astronomy

Nov. 05, 2013 Rise Set
Actual Time 7:10 AM CST 5:12 PM CST
Civil Twilight 6:40 AM CST 5:43 PM CST
Nautical Twilight 6:05 AM CST 6:17 PM CST
Astronomical Twilight 5:32 AM CST 6:51 PM CST
Moon 9:29 AM CST (11/5) 7:12 PM CST (11/5)
Length of Visible Light 11h 03m
Length of Day
10h 02m
Waxing Crescent, 7% of the Moon is Illuminated
Nov 5
Waxing Crescent
Nov 9
First Quarter
Nov 17
Full
Nov 25
Last Quarter
Dec 2
New

Hourly Weather History & Observations

Time (CST) Temp. Windchill Dew Point Humidity Pressure Visibility Wind Dir Wind Speed Gust Speed Precip Events Conditions
12:10 AM 30.2 °F - 30.2 °F 100% 30.14 in 10.0 mi Calm Calm - N/A   Clear
12:30 AM 30.2 °F - 30.2 °F 100% 30.15 in 10.0 mi Calm Calm - N/A   Clear
12:50 AM 28.4 °F - 28.4 °F 100% 30.15 in 10.0 mi Calm Calm - N/A   Clear
1:10 AM 28.4 °F - 28.4 °F 100% 30.16 in 10.0 mi Calm Calm - N/A   Clear
1:30 AM 28.4 °F 24.6 °F 28.4 °F 100% 30.15 in 10.0 mi North 3.5 mph - N/A   Clear
1:50 AM 26.6 °F 21.2 °F 26.6 °F 100% 30.15 in 10.0 mi North 4.6 mph - N/A   Clear
2:10 AM 28.4 °F 24.6 °F 28.4 °F 100% 30.15 in 10.0 mi North 3.5 mph - N/A   Clear
2:30 AM 26.6 °F 20.0 °F 26.6 °F 100% 30.16 in 10.0 mi North 5.8 mph - N/A   Clear
2:50 AM 28.4 °F 21.2 °F 28.4 °F 100% 30.15 in 10.0 mi North 6.9 mph - N/A   Mostly Cloudy
3:10 AM 32.0 °F 24.2 °F 32.0 °F 100% 30.14 in 10.0 mi North 9.2 mph - N/A   Overcast
3:30 AM 32.0 °F 23.0 °F 32.0 °F 100% 30.14 in 10.0 mi North 11.5 mph - N/A   Overcast
3:50 AM 33.8 °F 25.8 °F 28.4 °F 81% 30.13 in 10.0 mi North 10.4 mph - N/A   Overcast
4:10 AM 32.0 °F 24.2 °F 28.4 °F 87% 30.14 in 10.0 mi North 9.2 mph - N/A   Overcast
4:30 AM 32.0 °F - 28.4 °F 87% 30.15 in 10.0 mi Calm Calm - N/A   Overcast
4:50 AM 32.0 °F - 28.4 °F 87% 30.17 in 10.0 mi Calm Calm - N/A   Overcast
5:10 AM 32.0 °F 26.4 °F 28.4 °F 87% 30.16 in 10.0 mi ENE 5.8 mph - N/A   Overcast
5:30 AM 32.0 °F 25.6 °F 30.2 °F 93% 30.15 in 10.0 mi ENE 6.9 mph - N/A   Overcast
5:50 AM 32.0 °F 24.8 °F 28.4 °F 87% 30.15 in 10.0 mi East 8.1 mph - N/A   Overcast
6:10 AM 32.0 °F 24.8 °F 30.2 °F 93% 30.16 in 10.0 mi East 8.1 mph - N/A   Overcast
6:30 AM 32.0 °F 24.8 °F 30.2 °F 93% 30.16 in 10.0 mi East 8.1 mph - N/A   Overcast
6:50 AM 32.0 °F 24.8 °F 32.0 °F 100% 30.15 in 10.0 mi East 8.1 mph - N/A   Overcast
7:10 AM 32.0 °F 27.5 °F 32.0 °F 100% 30.15 in 10.0 mi ENE 4.6 mph - N/A   Overcast
7:30 AM 32.0 °F 27.5 °F 30.2 °F 93% 30.16 in 10.0 mi East 4.6 mph - N/A   Overcast
7:50 AM 32.0 °F 28.7 °F 32.0 °F 100% 30.16 in 10.0 mi ENE 3.5 mph - N/A   Overcast
8:10 AM 32.0 °F 27.5 °F 30.2 °F 93% 30.17 in 10.0 mi NE 4.6 mph - N/A   Mostly Cloudy
8:30 AM 32.0 °F 27.5 °F 30.2 °F 93% 30.18 in 10.0 mi ENE 4.6 mph - N/A   Overcast
8:50 AM 32.0 °F - 30.2 °F 93% 30.20 in 10.0 mi Calm Calm - N/A   Scattered Clouds
9:10 AM 32.0 °F 27.5 °F 30.2 °F 93% 30.21 in 10.0 mi NE 4.6 mph - N/A   Partly Cloudy
9:30 AM 33.8 °F 27.0 °F 28.4 °F 81% 30.20 in 10.0 mi East 8.1 mph - N/A   Scattered Clouds
9:50 AM 33.8 °F 26.4 °F 26.6 °F 75% 30.20 in 10.0 mi ENE 9.2 mph - N/A   Clear
10:10 AM 33.8 °F 26.4 °F 28.4 °F 81% 30.20 in 10.0 mi NE 9.2 mph - N/A   Scattered Clouds
10:30 AM 33.8 °F 24.8 °F 26.6 °F 75% 30.19 in 10.0 mi NNE 12.7 mph - N/A   Partly Cloudy
10:50 AM 33.8 °F 25.3 °F 24.8 °F 70% 30.19 in 10.0 mi NE 11.5 mph - N/A   Mostly Cloudy
11:10 AM 33.8 °F 26.4 °F 23.0 °F 65% 30.19 in 10.0 mi NE 9.2 mph - N/A   Overcast
11:30 AM 33.8 °F 25.3 °F 23.0 °F 65% 30.19 in 10.0 mi NE 11.5 mph - N/A   Mostly Cloudy
11:50 AM 32.0 °F 22.1 °F 32.0 °F 100% 30.17 in 10.0 mi NNE 13.8 mph - N/A   Scattered Clouds
12:10 PM 32.0 °F 23.0 °F 32.0 °F 100% 30.16 in 10.0 mi NE 11.5 mph - N/A Snow Light Snow
12:30 PM 32.0 °F 23.6 °F 32.0 °F 100% 30.15 in 1.0 mi NE 10.4 mph - 0.10 in Snow Light Snow
12:50 PM 32.0 °F 23.6 °F 32.0 °F 100% 30.14 in 0.8 mi ENE 10.4 mph - 0.37 in Snow Light Snow
1:10 PM 32.0 °F 25.6 °F 32.0 °F 100% 30.13 in 0.2 mi ENE 6.9 mph - 0.35 in Snow Heavy Snow
1:30 PM 30.2 °F 22.6 °F 30.2 °F 100% 30.12 in 0.2 mi ENE 8.1 mph - 1.20 in Snow Heavy Snow
1:50 PM 30.2 °F 22.6 °F 30.2 °F 100% 30.11 in - ENE 8.1 mph - 2.08 in Snow Heavy Snow
2:10 PM 30.2 °F 24.3 °F 30.2 °F 100% 30.10 in - NE 5.8 mph - 0.37 in Snow Heavy Snow
2:30 PM 30.2 °F 21.9 °F 30.2 °F 100% 30.09 in - ENE 9.2 mph - 1.02 in Snow Heavy Snow
2:50 PM 30.2 °F 21.9 °F 30.2 °F 100% 30.08 in 0.5 mi NE 9.2 mph - 1.62 in Snow Snow
3:10 PM 30.2 °F 21.3 °F 30.2 °F 100% 30.08 in 1.0 mi NE 10.4 mph - 0.09 in Snow Light Snow
3:30 PM 30.2 °F 21.3 °F 30.2 °F 100% 30.07 in 1.0 mi NE 10.4 mph - 0.28 in Snow Light Snow
3:50 PM 30.2 °F 22.6 °F 30.2 °F 100% 30.06 in 0.5 mi NE 8.1 mph - 0.50 in Snow Snow
4:10 PM 30.2 °F 21.9 °F 30.2 °F 100% 30.07 in 0.8 mi NNE 9.2 mph - 0.07 in Snow Light Snow
4:30 PM 30.2 °F 21.9 °F 30.2 °F 100% 30.07 in 0.8 mi NNE 9.2 mph - 0.37 in Snow Light Snow
4:50 PM 30.2 °F 21.9 °F 30.2 °F 100% 30.07 in 1.0 mi North 9.2 mph - 0.51 in Snow Light Snow
5:10 PM 30.2 °F 20.2 °F 30.2 °F 100% 30.07 in 0.8 mi North 12.7 mph - 0.05 in Snow Light Snow
5:30 PM 30.2 °F 19.8 °F 30.2 °F 100% 30.07 in 0.5 mi North 13.8 mph - 0.19 in Snow Snow
5:50 PM 30.2 °F 19.3 °F 30.2 °F 100% 30.08 in 1.8 mi North 15.0 mph - 0.31 in Snow Light Snow
6:10 PM 30.2 °F 19.8 °F 30.2 °F 100% 30.08 in 1.8 mi North 13.8 mph 23.0 mph 0.02 in Snow Light Snow
6:30 PM 30.2 °F 18.9 °F 30.2 °F 100% 30.08 in 4.0 mi NNE 16.1 mph - 0.06 in   Overcast
6:50 PM 30.2 °F 18.5 °F 30.2 °F 100% 30.08 in 4.0 mi NNE 17.3 mph 21.9 mph 0.08 in Snow Light Snow
7:10 PM 28.4 °F 16.6 °F 28.4 °F 100% 30.08 in 2.5 mi NNE 16.1 mph - 0.02 in Snow Light Snow
7:30 PM 28.4 °F 18.5 °F 28.4 °F 100% 30.09 in 1.8 mi North 11.5 mph - 0.09 in Snow Light Snow
7:50 PM 28.4 °F 19.7 °F 28.4 °F 100% 30.09 in 1.2 mi North 9.2 mph - 0.21 in Snow Light Snow
8:10 PM 28.4 °F 19.1 °F 28.4 °F 100% 30.09 in 1.0 mi North 10.4 mph - 0.12 in Snow Light Snow
8:30 PM 28.4 °F 19.1 °F 28.4 °F 100% 30.09 in 1.0 mi North 10.4 mph - 0.37 in Snow Light Snow
8:50 PM 28.4 °F 18.5 °F 28.4 °F 100% 30.09 in 1.2 mi North 11.5 mph - 0.61 in Snow Light Snow
9:10 PM 30.2 °F 20.2 °F 30.2 °F 100% 30.09 in 1.5 mi North 12.7 mph - 0.09 in Snow Light Snow
9:30 PM 30.2 °F 19.8 °F 30.2 °F 100% 30.10 in 1.5 mi North 13.8 mph - 0.30 in Snow Light Snow
9:50 PM 30.2 °F 18.9 °F 30.2 °F 100% 30.10 in 1.8 mi North 16.1 mph - 0.53 in Snow Light Snow
10:10 PM 30.2 °F 20.2 °F 30.2 °F 100% 30.10 in 3.0 mi North 12.7 mph - 0.03 in Snow Light Snow
10:30 PM 30.2 °F 20.8 °F 30.2 °F 100% 30.10 in 2.5 mi North 11.5 mph - 0.09 in Snow Light Snow
10:50 PM 30.2 °F 20.2 °F 30.2 °F 100% 30.10 in 4.0 mi North 12.7 mph - 0.16 in Snow Light Snow
11:10 PM 30.2 °F 20.2 °F 30.2 °F 100% 30.10 in 2.5 mi North 12.7 mph - 0.05 in Snow Light Snow
11:30 PM 30.2 °F 20.2 °F 30.2 °F 100% 30.10 in 5.0 mi North 12.7 mph - 0.15 in Snow Light Snow
11:50 PM 30.2 °F 22.6 °F 30.2 °F 100% 30.10 in 5.0 mi North 8.1 mph - 0.21 in Snow Light Snow